createdAt,value
2018-05-09T00:01:43.638Z,99.90
2018-05-09T00:04:13.320Z,99.90
2018-05-09T00:06:42.999Z,99.90
2018-05-09T00:09:13.436Z,99.90
2018-05-09T00:11:42.334Z,99.90
2018-05-09T00:14:12.385Z,99.90
2018-05-09T00:16:41.313Z,99.90
2018-05-09T00:21:40.273Z,99.90
2018-05-09T00:24:09.567Z,99.90
2018-05-09T00:26:38.879Z,99.90
2018-05-09T00:29:09.286Z,99.90
2018-05-09T00:31:38.229Z,99.90
2018-05-09T00:36:37.177Z,99.90
2018-05-09T00:39:07.237Z,99.90
2018-05-09T00:41:36.606Z,99.90
2018-05-09T00:46:35.539Z,99.90
2018-05-09T00:49:05.594Z,99.90
2018-05-09T00:51:34.623Z,99.90
2018-05-09T00:54:15.260Z,99.90
2018-05-09T00:56:44.195Z,99.90
2018-05-09T00:59:13.858Z,99.90
2018-05-09T01:01:43.549Z,99.90
2018-05-09T01:06:42.912Z,99.90
2018-05-09T01:11:42.652Z,99.90
2018-05-09T01:14:11.558Z,99.90
2018-05-09T01:16:41.617Z,99.90
2018-05-09T01:19:10.526Z,99.90
2018-05-09T01:21:39.868Z,99.90
2018-05-09T01:24:09.540Z,99.90
2018-05-09T01:26:38.448Z,99.90
2018-05-09T01:31:38.172Z,99.90
2018-05-09T01:34:07.083Z,99.90
2018-05-09T01:36:36.776Z,99.90
2018-05-09T01:39:06.446Z,99.90
2018-05-09T01:41:35.363Z,99.90
2018-05-09T01:46:35.106Z,99.90
2018-05-09T01:49:03.999Z,99.90
2018-05-09T01:54:03.344Z,99.90
2018-05-09T01:56:32.656Z,99.90
2018-05-09T01:59:02.326Z,99.90
2018-05-09T02:01:32.008Z,99.90
2018-05-09T02:04:00.928Z,99.90
2018-05-09T02:06:30.589Z,99.90
2018-05-09T02:08:59.503Z,99.90
2018-05-09T02:11:28.428Z,99.90
2018-05-09T02:16:27.397Z,99.90
2018-05-09T02:18:56.306Z,99.90
2018-05-09T02:21:25.704Z,99.90
2018-05-09T02:26:24.653Z,99.90
2018-05-09T02:28:54.557Z,99.90
2018-05-09T02:31:24.237Z,99.90
2018-05-09T02:33:53.556Z,99.90
2018-05-09T02:38:55.070Z,99.90
2018-05-09T02:41:25.470Z,99.90
2018-05-09T02:43:54.389Z,99.90
2018-05-09T02:46:23.278Z,99.90
2018-05-09T02:48:52.200Z,99.90
2018-05-09T02:51:21.737Z,99.90
2018-05-09T02:53:50.666Z,99.90
2018-05-09T02:56:19.683Z,99.90
2018-05-09T02:58:48.989Z,99.90
2018-05-09T03:01:18.666Z,99.90
2018-05-09T03:03:49.087Z,99.90
2018-05-09T03:06:17.989Z,99.90
2018-05-09T03:08:47.709Z,99.90
2018-05-09T03:11:16.702Z,99.90
2018-05-09T03:16:15.670Z,99.90
2018-05-09T03:26:14.743Z,99.90
2018-05-09T03:28:44.065Z,99.90
2018-05-09T03:31:12.977Z,99.90
2018-05-09T03:33:41.909Z,99.90
2018-05-09T03:36:10.926Z,99.90
2018-05-09T03:38:39.829Z,99.90
2018-05-09T03:41:08.730Z,99.90
2018-05-09T03:43:37.662Z,99.90
2018-05-09T03:46:08.082Z,99.90
2018-05-09T03:48:37.412Z,99.90
2018-05-09T03:51:07.452Z,99.90
2018-05-09T03:53:36.414Z,99.90
2018-05-09T03:56:06.088Z,99.90
2018-05-09T03:58:35.016Z,99.90
2018-05-09T04:01:04.676Z,99.90
2018-05-09T04:03:45.320Z,99.90
2018-05-09T04:06:26.616Z,99.90
2018-05-09T04:09:08.152Z,99.90
2018-05-09T04:11:37.822Z,99.90
2018-05-09T04:14:07.522Z,99.90
2018-05-09T04:16:37.210Z,99.90
2018-05-09T04:19:07.264Z,99.90
2018-05-09T04:21:36.574Z,99.90
2018-05-09T04:26:36.378Z,99.90
2018-05-09T04:31:35.335Z,99.90
2018-05-09T04:36:34.304Z,99.90
2018-05-09T04:39:03.336Z,99.90
2018-05-09T04:41:33.004Z,99.90
2018-05-09T04:44:02.801Z,99.90
2018-05-09T04:46:31.716Z,99.90
2018-05-09T04:49:00.900Z,99.90
2018-05-09T04:51:29.824Z,99.90
2018-05-09T04:56:28.780Z,99.90
2018-05-09T04:58:57.686Z,99.90
2018-05-09T05:01:26.608Z,99.90
2018-05-09T05:03:55.539Z,99.90
2018-05-09T05:06:24.493Z,99.90
2018-05-09T05:08:54.890Z,99.90
2018-05-09T05:11:24.604Z,99.90
2018-05-09T05:13:53.518Z,99.90
2018-05-09T05:16:22.431Z,99.90
2018-05-09T05:18:51.727Z,99.90
2018-05-09T05:21:22.161Z,99.90
2018-05-09T05:23:51.465Z,99.90
2018-05-09T05:26:20.383Z,99.90
2018-05-09T05:28:50.065Z,99.90
2018-05-09T05:31:18.993Z,99.90
2018-05-09T05:33:48.669Z,99.90
2018-05-09T05:36:17.585Z,99.90
2018-05-09T05:38:47.640Z,99.90
2018-05-09T05:41:17.317Z,99.90
2018-05-09T05:43:47.367Z,99.90
2018-05-09T05:46:17.069Z,99.90
2018-05-09T05:48:46.469Z,99.90
2018-05-09T05:51:15.768Z,99.90
2018-05-09T05:56:14.713Z,99.90
2018-05-09T05:58:43.631Z,99.90
2018-05-09T06:01:12.551Z,99.90
2018-05-09T06:03:42.232Z,99.90
2018-05-09T06:06:12.072Z,99.90
2018-05-09T06:08:40.979Z,99.90
2018-05-09T06:11:10.656Z,99.90
2018-05-09T06:13:40.348Z,99.90
2018-05-09T06:18:39.779Z,99.90
2018-05-09T06:21:08.684Z,99.90
2018-05-09T06:23:38.371Z,99.90
2018-05-09T06:26:07.292Z,99.90
2018-05-09T06:31:06.673Z,99.90
2018-05-09T06:33:35.596Z,99.90
2018-05-09T06:36:04.514Z,99.90
2018-05-09T06:41:03.488Z,99.90
2018-05-09T06:46:03.602Z,99.90
2018-05-09T06:48:32.522Z,99.90
2018-05-09T06:51:02.322Z,99.90
2018-05-09T06:53:32.357Z,99.90
2018-05-09T06:56:01.263Z,99.90
2018-05-09T06:58:30.948Z,99.90
2018-05-09T07:00:59.857Z,99.90
2018-05-09T07:05:58.843Z,99.90
2018-05-09T07:08:28.943Z,99.90
2018-05-09T07:10:58.555Z,99.90
2018-05-09T07:13:28.244Z,99.90
2018-05-09T07:15:57.218Z,99.90
2018-05-09T07:18:27.231Z,99.90
2018-05-09T07:20:56.544Z,99.90
2018-05-09T07:23:25.449Z,99.90
2018-05-09T07:25:54.366Z,99.90
2018-05-09T07:28:24.051Z,99.90
2018-05-09T07:30:52.973Z,99.90
2018-05-09T07:33:21.893Z,99.90
2018-05-09T07:35:50.801Z,99.90
2018-05-09T07:38:20.103Z,99.90
2018-05-09T07:40:49.022Z,99.90
2018-05-09T07:43:18.340Z,99.90
2018-05-09T07:45:47.244Z,99.90
2018-05-09T07:48:16.574Z,99.90
2018-05-09T07:50:45.495Z,99.90
2018-05-09T07:53:15.155Z,99.90
2018-05-09T07:55:44.094Z,99.90
2018-05-09T07:58:12.997Z,99.90
2018-05-09T08:00:41.913Z,99.90
2018-05-09T08:03:10.835Z,99.90
2018-05-09T08:05:39.741Z,99.90
2018-05-09T08:08:10.283Z,99.90
2018-05-09T08:10:39.184Z,99.90
2018-05-09T08:13:08.876Z,99.90
2018-05-09T08:15:37.784Z,99.90
2018-05-09T08:18:07.476Z,99.90
2018-05-09T08:20:36.370Z,99.90
2018-05-09T08:23:06.080Z,99.90
2018-05-09T08:25:35.400Z,99.90
2018-05-09T08:28:04.315Z,99.90
2018-05-09T08:30:33.612Z,99.90
2018-05-09T08:33:02.530Z,99.90
2018-05-09T08:35:32.965Z,99.90
2018-05-09T08:38:01.888Z,99.90
2018-05-09T08:40:30.830Z,99.30
2018-05-09T08:43:01.294Z,99.50
2018-05-09T08:45:30.994Z,99.40
2018-05-09T08:48:00.664Z,97.70
2018-05-09T08:50:29.588Z,97.20
2018-05-09T08:53:00.400Z,98.30
2018-05-09T08:55:29.415Z,96.10
2018-05-09T08:57:58.254Z,96.80
2018-05-09T09:00:27.155Z,97.10
2018-05-09T09:02:56.082Z,97.80
2018-05-09T09:05:25.774Z,94.30
2018-05-09T09:07:54.676Z,93.40
2018-05-09T09:10:23.600Z,94.30
2018-05-09T09:12:52.510Z,93.40
2018-05-09T09:15:21.470Z,91.70
2018-05-09T09:17:51.140Z,93.60
2018-05-09T09:20:20.063Z,92.50
2018-05-09T09:22:49.720Z,92.30
2018-05-09T09:25:18.639Z,93.00
2018-05-09T09:27:48.314Z,91.20
2018-05-09T09:30:17.222Z,90.80
2018-05-09T09:32:46.145Z,86.30
2018-05-09T09:35:16.108Z,90.10
2018-05-09T09:37:45.789Z,87.00
2018-05-09T09:40:15.104Z,90.80
2018-05-09T09:42:44.004Z,85.10
2018-05-09T09:45:12.944Z,87.30
2018-05-09T09:47:42.618Z,82.70
2018-05-09T09:50:11.540Z,84.10
2018-05-09T09:52:40.461Z,84.20
2018-05-09T09:55:09.758Z,83.60
2018-05-09T09:57:39.418Z,77.60
2018-05-09T10:00:09.694Z,77.40
2018-05-09T10:02:38.612Z,77.80
2018-05-09T10:05:07.540Z,76.00
2018-05-09T10:07:36.456Z,79.10
2018-05-09T10:10:05.376Z,80.50
2018-05-09T10:12:34.288Z,77.60
2018-05-09T10:15:03.622Z,78.10
2018-05-09T10:17:33.301Z,77.50
2018-05-09T10:20:02.586Z,72.00
2018-05-09T10:22:31.539Z,74.30
2018-05-09T10:25:00.852Z,70.10
2018-05-09T10:27:29.774Z,70.00
2018-05-09T10:29:58.690Z,71.20
2018-05-09T10:32:28.380Z,68.00
2018-05-09T10:34:57.280Z,65.60
2018-05-09T10:37:26.974Z,66.50
2018-05-09T10:42:26.710Z,67.70
2018-05-09T10:44:55.619Z,66.00
2018-05-09T10:47:25.312Z,64.20
2018-05-09T10:49:54.998Z,59.20
2018-05-09T10:52:23.925Z,60.10
2018-05-09T10:54:53.584Z,58.40
2018-05-09T10:57:22.510Z,58.60
2018-05-09T11:02:21.494Z,56.10
2018-05-09T11:07:20.479Z,56.60
2018-05-09T11:09:49.381Z,55.20
2018-05-09T11:12:18.295Z,51.40
2018-05-09T11:14:47.201Z,51.00
2018-05-09T11:17:16.888Z,52.40
2018-05-09T11:19:46.555Z,49.10
2018-05-09T11:22:15.506Z,48.70
2018-05-09T11:24:45.210Z,49.10
2018-05-09T11:27:14.104Z,48.00
2018-05-09T11:29:43.776Z,48.30
2018-05-09T11:32:12.699Z,47.30
2018-05-09T11:34:42.369Z,46.70
2018-05-09T15:00:00.722Z,36.50
2018-05-09T15:02:29.641Z,37.00
2018-05-09T15:04:58.568Z,37.10
2018-05-09T15:07:27.682Z,38.30
2018-05-09T15:09:57.347Z,37.40
2018-05-09T15:12:26.251Z,35.60
2018-05-09T15:14:55.943Z,36.90
2018-05-09T15:17:24.859Z,36.00
2018-05-09T15:19:53.766Z,35.80
2018-05-09T15:22:22.695Z,36.40
2018-05-09T15:24:51.607Z,35.40
2018-05-09T15:27:20.537Z,37.10
2018-05-09T15:29:50.202Z,37.00
2018-05-09T15:32:20.639Z,36.80
2018-05-09T15:34:50.381Z,37.70
2018-05-09T15:37:19.674Z,37.20
2018-05-09T15:39:48.578Z,36.90
2018-05-09T15:44:48.703Z,39.50
2018-05-09T15:47:18.415Z,36.80
2018-05-09T15:49:47.328Z,37.50
2018-05-09T15:57:17.148Z,38.70
2018-05-09T15:59:47.183Z,40.50
2018-05-09T16:02:16.133Z,38.70
2018-05-09T16:04:45.038Z,37.50
2018-05-09T16:07:14.738Z,38.30
2018-05-09T16:09:43.642Z,39.90
2018-05-09T16:12:13.328Z,37.50
2018-05-09T16:17:13.062Z,37.30
2018-05-09T16:19:42.401Z,37.60
2018-05-09T16:24:41.365Z,38.20
2018-05-09T16:27:10.288Z,37.80
2018-05-09T16:32:10.760Z,38.10
2018-05-09T16:34:40.822Z,38.70
2018-05-09T16:37:09.763Z,38.40
2018-05-09T16:39:39.442Z,38.70
2018-05-09T16:42:08.342Z,39.30
2018-05-09T16:44:38.399Z,39.30
2018-05-09T16:47:08.092Z,39.70
2018-05-09T16:52:07.561Z,39.50
2018-05-09T16:54:36.450Z,39.40
2018-05-09T16:57:06.262Z,40.50
2018-05-09T16:59:35.148Z,40.20
2018-05-09T17:02:04.826Z,42.30
2018-05-09T17:04:33.756Z,40.80
2018-05-09T17:07:03.441Z,42.70
2018-05-09T17:09:32.353Z,40.70
2018-05-09T17:12:02.157Z,41.00
2018-05-09T17:17:03.199Z,40.80
2018-05-09T17:19:32.514Z,42.20
2018-05-09T17:22:18.824Z,41.50
2018-05-09T17:24:48.507Z,41.50
2018-05-09T17:27:17.452Z,43.20
2018-05-09T17:32:16.522Z,42.00
2018-05-09T17:34:45.442Z,41.80
2018-05-09T17:37:14.359Z,42.60
2018-05-09T17:39:43.688Z,42.50
2018-05-09T17:42:12.605Z,41.70
2018-05-09T17:44:42.665Z,41.90
2018-05-09T17:52:12.484Z,44.00
2018-05-09T17:54:41.408Z,43.90
2018-05-09T17:57:10.333Z,44.90
2018-05-09T17:59:40.017Z,46.10
2018-05-09T18:04:39.401Z,45.50
2018-05-09T18:07:08.311Z,46.60
2018-05-09T18:09:38.383Z,45.60
2018-05-09T18:12:07.295Z,47.00
2018-05-09T18:14:36.215Z,47.90
2018-05-09T18:17:05.893Z,48.80
2018-05-09T18:19:34.824Z,48.10
2018-05-09T18:22:04.120Z,49.50
2018-05-09T18:24:33.427Z,50.50
2018-05-09T18:29:32.401Z,51.60
2018-05-09T18:34:31.365Z,52.40
2018-05-09T18:37:01.061Z,53.30
2018-05-09T18:39:29.974Z,53.20
2018-05-09T18:41:59.284Z,54.60
2018-05-09T18:46:59.747Z,56.00
2018-05-09T18:49:28.673Z,55.80
2018-05-09T18:54:27.706Z,56.60
2018-05-09T18:56:56.550Z,57.10
2018-05-09T19:01:55.534Z,59.20
2018-05-09T19:04:24.473Z,60.00
2018-05-09T19:06:54.150Z,59.90
2018-05-09T19:09:23.467Z,61.50
2018-05-09T19:11:52.380Z,61.20
2018-05-09T19:14:22.086Z,62.20
2018-05-09T19:16:51.745Z,63.00
2018-05-09T19:19:21.458Z,62.40
2018-05-09T19:21:50.366Z,63.20
2018-05-09T19:24:19.288Z,64.50
2018-05-09T19:26:48.972Z,65.40
2018-05-09T19:29:18.670Z,65.40
2018-05-09T19:31:48.349Z,66.60
2018-05-09T19:34:17.305Z,67.00
2018-05-09T19:36:46.224Z,67.70
2018-05-09T19:41:45.241Z,67.70
2018-05-09T19:44:14.501Z,69.10
2018-05-09T19:46:44.199Z,70.00
2018-05-09T19:49:13.499Z,70.10
2018-05-09T19:51:43.193Z,71.80
2018-05-09T19:54:13.334Z,71.50
2018-05-09T19:59:12.349Z,72.90
2018-05-09T20:01:41.646Z,72.70
2018-05-09T20:04:11.337Z,72.00
2018-05-09T20:06:41.023Z,74.40
2018-05-09T20:11:40.407Z,75.90
2018-05-09T20:14:10.477Z,76.90
2018-05-09T20:16:39.375Z,78.20
2018-05-09T20:19:09.434Z,79.10
2018-05-09T20:21:38.356Z,79.30
2018-05-09T20:26:39.758Z,82.60
2018-05-09T20:34:20.456Z,85.80
2018-05-09T20:36:50.250Z,85.70
2018-05-09T20:39:19.141Z,88.30
2018-05-09T20:41:49.596Z,90.00
2018-05-09T20:44:19.292Z,90.80
2018-05-09T20:49:18.794Z,92.50
2018-05-09T20:51:51.181Z,93.20
2018-05-09T20:54:20.500Z,93.70
2018-05-09T20:56:49.442Z,93.80
2018-05-09T20:59:18.357Z,95.00
2018-05-09T21:01:49.201Z,95.80
2018-05-09T21:04:18.528Z,95.90
2018-05-09T21:06:47.442Z,98.00
2018-05-09T21:11:58.358Z,98.90
2018-05-09T21:14:27.281Z,99.90
2018-05-09T21:16:56.238Z,99.90
2018-05-09T21:19:25.166Z,99.90
2018-05-09T21:21:54.090Z,99.90
2018-05-09T21:24:23.004Z,99.90
2018-05-09T21:26:51.926Z,99.90
2018-05-09T21:31:50.885Z,99.90
2018-05-09T21:44:20.411Z,99.90
2018-05-09T21:46:51.230Z,99.90
2018-05-09T21:49:20.525Z,99.90
2018-05-09T21:51:50.609Z,99.90
2018-05-09T21:56:51.715Z,99.90
2018-05-09T22:01:51.135Z,99.90
2018-05-09T22:04:21.555Z,99.90
2018-05-09T22:06:50.486Z,99.90
2018-05-09T22:09:20.171Z,99.90
2018-05-09T22:14:19.581Z,99.90
2018-05-09T22:16:48.499Z,99.90
2018-05-09T22:19:18.538Z,99.90
2018-05-09T22:24:18.396Z,99.90
2018-05-09T22:26:47.713Z,99.90
2018-05-09T22:31:47.085Z,99.90
2018-05-09T22:34:16.826Z,99.90
2018-05-09T22:36:45.693Z,99.90
2018-05-09T22:41:45.441Z,99.90
2018-05-09T22:44:14.351Z,99.90
2018-05-09T22:46:43.657Z,99.90
2018-05-09T22:51:43.778Z,99.90
2018-05-09T22:54:13.462Z,99.90
2018-05-09T22:56:42.394Z,99.90
2018-05-09T22:59:12.459Z,99.90
2018-05-09T23:04:11.414Z,99.90
2018-05-09T23:09:13.740Z,99.90
2018-05-09T23:11:43.414Z,99.90
2018-05-09T23:14:12.336Z,99.90
2018-05-09T23:28:15.812Z,99.90
2018-05-09T23:30:46.274Z,99.90
2018-05-09T23:33:15.193Z,99.90
2018-05-09T23:38:14.215Z,99.90
2018-05-09T23:40:43.212Z,99.90
2018-05-09T23:43:12.463Z,99.90
2018-05-09T23:45:41.764Z,99.90
2018-05-09T23:48:11.833Z,99.90
2018-05-09T23:53:10.821Z,99.90
2018-05-09T23:55:40.531Z,99.90
2018-05-09T23:58:10.205Z,99.90
